createdAt,value
2022-12-16T00:01:27.236Z,96588.31
2022-12-16T00:06:33.792Z,96600.13
2022-12-16T00:11:38.712Z,96597.34
2022-12-16T00:16:42.191Z,96589.47
2022-12-16T00:21:45.914Z,96582.53
2022-12-16T00:26:51.246Z,96577.31
2022-12-16T00:31:55.487Z,96568.69
2022-12-16T00:36:59.413Z,96575.34
2022-12-16T00:42:04.675Z,96568.31
2022-12-16T00:47:08.295Z,96563.16
2022-12-16T00:52:11.858Z,96572.09
2022-12-16T00:57:16.976Z,96569.69
2022-12-16T01:02:20.826Z,96576.44
2022-12-16T01:07:24.531Z,96573.72
2022-12-16T01:12:30.046Z,96579.75
2022-12-16T01:17:35.169Z,96582.47
2022-12-16T01:22:39.935Z,96592.88
2022-12-16T01:27:45.045Z,96594.06
2022-12-16T01:32:48.651Z,96591.00
2022-12-16T01:37:52.224Z,96584.78
2022-12-16T01:42:59.964Z,96587.47
2022-12-16T01:48:13.398Z,96594.56
2022-12-16T01:53:17.107Z,96594.59
2022-12-16T01:58:27.046Z,96594.69
2022-12-16T02:03:36.978Z,96590.50
2022-12-16T02:08:40.931Z,96589.88
2022-12-16T02:14:06.611Z,96596.63
2022-12-16T02:19:24.640Z,96595.13
2022-12-16T02:25:04.029Z,96608.84
2022-12-16T02:30:29.894Z,96596.22
2022-12-16T02:35:40.839Z,96601.41
2022-12-16T02:40:52.635Z,96607.47
2022-12-16T02:46:00.523Z,96605.03
2022-12-16T02:51:04.346Z,96605.97
2022-12-16T02:56:18.532Z,96618.75
2022-12-16T03:01:32.101Z,96607.03
2022-12-16T03:06:39.819Z,96615.47
2022-12-16T03:11:46.247Z,96611.38
2022-12-16T03:16:52.288Z,96611.47
2022-12-16T03:22:01.656Z,96612.38
2022-12-16T03:27:13.737Z,96608.16
2022-12-16T03:32:25.876Z,96603.34
2022-12-16T03:37:35.014Z,96611.88
2022-12-16T03:42:40.439Z,96617.22
2022-12-16T03:47:50.020Z,96616.31
2022-12-16T03:52:54.001Z,96622.06
2022-12-16T03:57:58.272Z,96631.59
2022-12-16T04:03:03.433Z,96638.34
2022-12-16T04:08:07.689Z,96646.03
2022-12-16T04:13:29.788Z,96631.63
2022-12-16T04:18:53.377Z,96637.72
2022-12-16T04:24:16.688Z,96644.63
2022-12-16T04:29:20.321Z,96652.19
2022-12-16T04:34:29.407Z,96653.06
2022-12-16T04:39:46.961Z,96664.19
2022-12-16T04:45:08.024Z,96663.41
2022-12-16T04:50:30.730Z,96671.00
2022-12-16T04:55:51.957Z,96683.78
2022-12-16T05:01:13.394Z,96683.03
2022-12-16T05:06:35.949Z,96681.34
2022-12-16T05:11:57.058Z,96692.38
2022-12-16T05:17:18.730Z,96701.75
2022-12-16T05:22:41.664Z,96709.34
2022-12-16T05:28:02.791Z,96708.53
2022-12-16T05:33:24.039Z,96711.97
2022-12-16T05:38:46.544Z,96722.22
2022-12-16T05:44:07.619Z,96728.97
2022-12-16T05:49:28.637Z,96721.31
2022-12-16T05:54:51.595Z,96726.41
2022-12-16T06:00:12.793Z,96737.47
2022-12-16T06:05:34.178Z,96745.19
2022-12-16T06:10:56.470Z,96746.84
2022-12-16T06:16:17.637Z,96751.06
2022-12-16T06:21:50.116Z,96763.00
2022-12-16T06:27:12.622Z,96770.66
2022-12-16T06:32:33.834Z,96772.34
2022-12-16T06:37:55.056Z,96780.88
2022-12-16T06:43:17.250Z,96792.78
2022-12-16T06:48:38.076Z,96786.84
2022-12-16T06:53:59.285Z,96800.47
2022-12-16T06:59:21.412Z,96810.66
2022-12-16T07:04:42.503Z,96806.41
2022-12-16T07:10:03.487Z,96813.22
2022-12-16T07:15:27.712Z,96828.53
2022-12-16T07:20:48.936Z,96833.63
2022-12-16T07:26:09.942Z,96841.25
2022-12-16T07:31:32.642Z,96851.47
2022-12-16T07:36:53.715Z,96861.69
2022-12-16T07:42:14.730Z,96870.16
2022-12-16T07:47:37.508Z,96878.66
2022-12-16T07:52:58.697Z,96885.47
2022-12-16T07:58:16.205Z,96894.81
2022-12-16T08:03:38.666Z,96905.88
2022-12-16T08:08:59.870Z,96899.91
2022-12-16T08:14:20.904Z,96914.38
2022-12-16T08:19:43.672Z,96923.72
2022-12-16T08:25:04.693Z,96924.59
2022-12-16T08:30:26.836Z,96926.31
2022-12-16T08:35:49.740Z,96934.75
2022-12-16T08:41:13.951Z,96943.28
2022-12-16T08:46:35.194Z,96941.56
2022-12-16T08:51:57.683Z,96950.03
2022-12-16T08:57:18.973Z,96955.09
2022-12-16T09:02:40.267Z,96960.16
2022-12-16T09:08:01.942Z,96959.25
2022-12-16T09:13:27.103Z,96970.31
2022-12-16T09:18:48.182Z,96972.00
2022-12-16T09:24:18.949Z,96978.66
2022-12-16T09:29:45.059Z,96982.81
2022-12-16T09:35:10.174Z,96986.00
2022-12-16T09:40:36.808Z,96978.03
2022-12-16T09:46:06.514Z,96987.31
2022-12-16T09:51:30.169Z,96988.41
2022-12-16T09:56:55.367Z,96992.81
2022-12-16T10:02:16.779Z,96999.56
2022-12-16T10:07:39.817Z,96998.22
2022-12-16T10:13:11.891Z,96997.38
2022-12-16T10:18:47.025Z,97001.88
2022-12-16T10:24:26.829Z,97007.84
2022-12-16T10:29:55.259Z,97002.31
2022-12-16T10:35:16.996Z,97005.91
2022-12-16T10:40:42.912Z,96998.44
2022-12-16T10:46:09.242Z,96986.97
2022-12-16T10:51:32.263Z,96990.00
2022-12-16T10:57:09.728Z,96990.72
2022-12-16T11:02:38.987Z,96994.97
2022-12-16T11:08:17.770Z,97000.00
2022-12-16T11:13:41.190Z,96987.31
2022-12-16T11:19:08.985Z,96997.03
2022-12-16T11:24:33.325Z,97000.81
2022-12-16T11:30:08.746Z,97002.13
2022-12-16T11:35:36.259Z,97011.19
2022-12-16T11:40:58.483Z,97002.28
2022-12-16T11:46:22.725Z,97008.41
2022-12-16T11:51:48.161Z,97014.31
2022-12-16T11:57:09.315Z,97025.50
2022-12-16T12:02:37.174Z,97035.16
2022-12-16T12:08:09.038Z,97035.56
2022-12-16T12:13:46.199Z,97041.59
2022-12-16T12:19:16.895Z,97053.94
2022-12-16T12:24:56.251Z,97057.59
2022-12-16T12:30:23.231Z,97060.91
2022-12-16T12:36:00.757Z,97059.84
2022-12-16T12:41:33.087Z,97062.19
2022-12-16T12:47:00.646Z,97070.84
2022-12-16T12:52:32.289Z,97079.22
2022-12-16T12:57:58.255Z,97081.50
2022-12-16T13:03:25.753Z,97093.72
2022-12-16T13:09:05.232Z,97099.38
2022-12-16T13:14:59.647Z,97098.34
2022-12-16T13:20:25.114Z,97101.44
2022-12-16T13:25:58.394Z,97112.56
2022-12-16T13:31:25.880Z,97111.94
2022-12-16T13:36:54.039Z,97125.75
2022-12-16T13:42:19.244Z,97131.59
2022-12-16T13:47:51.632Z,97138.22
2022-12-16T13:53:16.650Z,97137.09
2022-12-16T13:58:53.900Z,97153.34
2022-12-16T14:04:17.009Z,97161.81
2022-12-16T14:09:50.843Z,97169.25
2022-12-16T14:15:19.354Z,97170.28
2022-12-16T14:20:45.884Z,97172.59
2022-12-16T14:26:15.565Z,97196.00
2022-12-16T14:31:41.214Z,97196.94
2022-12-16T14:37:06.436Z,97191.22
2022-12-16T14:42:38.324Z,97201.03
2022-12-16T14:47:59.433Z,97211.72
2022-12-16T14:53:35.472Z,97220.91
2022-12-16T14:58:58.190Z,97220.56
2022-12-16T15:04:21.268Z,97226.09
2022-12-16T15:09:48.026Z,97225.53
2022-12-16T15:15:13.215Z,97234.97
2022-12-16T15:20:51.707Z,97234.75
2022-12-16T15:26:16.093Z,97249.22
2022-12-16T15:31:44.611Z,97256.53
2022-12-16T15:37:05.680Z,97265.94
2022-12-16T15:42:38.747Z,97274.88
2022-12-16T15:48:00.335Z,97287.38
2022-12-16T15:53:34.552Z,97300.34
2022-12-16T15:58:56.298Z,97308.31
2022-12-16T16:04:18.782Z,97307.66
2022-12-16T16:09:41.405Z,97318.97
2022-12-16T16:15:02.677Z,97320.06
2022-12-16T16:20:31.878Z,97326.28
2022-12-16T16:25:52.922Z,97328.16
2022-12-16T16:31:14.073Z,97340.22
2022-12-16T16:36:36.713Z,97334.41
2022-12-16T16:41:58.235Z,97338.78
2022-12-16T16:47:19.815Z,97344.88
2022-12-16T16:52:44.522Z,97351.00
2022-12-16T16:58:05.794Z,97359.78
2022-12-16T17:03:27.332Z,97364.16
2022-12-16T17:08:49.993Z,97374.53
2022-12-16T17:14:11.064Z,97378.09
2022-12-16T17:19:32.155Z,97390.03
2022-12-16T17:24:56.125Z,97385.94
2022-12-16T17:30:17.723Z,97395.41
2022-12-16T17:35:38.962Z,97397.19
2022-12-16T17:41:15.781Z,97409.19
2022-12-16T17:46:36.824Z,97411.84
2022-12-16T17:51:58.512Z,97412.66
2022-12-16T17:57:20.884Z,97419.50
2022-12-16T18:02:42.454Z,97426.41
2022-12-16T18:08:03.886Z,97440.94
2022-12-16T18:13:26.561Z,97450.31
2022-12-16T18:18:47.771Z,97453.72
2022-12-16T18:24:08.904Z,97457.13
2022-12-16T18:29:31.640Z,97456.28
2022-12-16T18:34:52.743Z,97469.03
2022-12-16T18:40:13.670Z,97477.53
2022-12-16T18:45:36.284Z,97492.91
2022-12-16T18:50:57.390Z,97491.13
2022-12-16T18:56:19.926Z,97491.13
2022-12-16T19:01:42.987Z,97506.38
2022-12-16T19:07:04.406Z,97513.22
2022-12-16T19:12:25.443Z,97511.44
2022-12-16T19:17:48.379Z,97526.75
2022-12-16T19:23:09.290Z,97531.88
2022-12-16T19:28:34.260Z,97535.22
2022-12-16T19:33:56.658Z,97542.91
2022-12-16T19:39:17.979Z,97545.44
2022-12-16T19:44:38.883Z,97563.25
2022-12-16T19:50:01.300Z,97558.16
2022-12-16T19:55:26.046Z,97575.16
2022-12-16T20:00:47.887Z,97576.88
2022-12-16T20:06:18.706Z,97578.47
2022-12-16T20:11:39.538Z,97583.59
2022-12-16T20:17:01.005Z,97585.34
2022-12-16T20:22:24.144Z,97601.53
2022-12-16T20:27:45.369Z,97609.31
2022-12-16T20:33:06.551Z,97614.66
2022-12-16T20:38:29.316Z,97617.38
2022-12-16T20:43:51.686Z,97616.56
2022-12-16T20:49:12.882Z,97628.59
2022-12-16T20:54:36.517Z,97643.22
2022-12-16T20:59:57.533Z,97644.97
2022-12-16T21:05:19.141Z,97649.31
2022-12-16T21:10:42.375Z,97657.84
2022-12-16T21:16:03.516Z,97662.16
2022-12-16T21:21:24.985Z,97666.38
2022-12-16T21:26:47.261Z,97673.22
2022-12-16T21:32:08.930Z,97674.03
2022-12-16T21:37:30.502Z,97671.38
2022-12-16T21:42:56.231Z,97687.56
2022-12-16T21:48:32.837Z,97696.91
2022-12-16T21:53:54.460Z,97702.81
2022-12-16T21:59:19.130Z,97699.34
2022-12-16T22:04:40.772Z,97713.88
2022-12-16T22:10:01.862Z,97712.94
2022-12-16T22:15:25.639Z,97718.03
2022-12-16T22:20:46.578Z,97723.84
2022-12-16T22:26:17.288Z,97725.56
2022-12-16T22:31:39.617Z,97734.91
2022-12-16T22:37:01.423Z,97730.50
2022-12-16T22:42:23.019Z,97730.41
2022-12-16T22:47:45.967Z,97738.09
2022-12-16T22:53:07.748Z,97730.22
2022-12-16T22:58:30.623Z,97733.63
2022-12-16T23:03:53.831Z,97739.50
2022-12-16T23:09:17.814Z,97736.88
2022-12-16T23:20:22.036Z,97747.84
2022-12-16T23:25:43.174Z,97749.53
2022-12-16T23:31:09.951Z,97751.97
2022-12-16T23:32:30.682Z,97736.78
2022-12-16T23:36:32.737Z,97757.06
2022-12-16T23:41:53.656Z,97761.34
2022-12-16T23:47:17.472Z,97764.72
2022-12-16T23:52:40.294Z,97768.16
2022-12-16T23:58:01.538Z,97773.28
